createdAt,value
2022-11-15T00:01:16.188Z,96437.47
2022-11-15T00:03:43.032Z,96428.78
2022-11-15T00:06:10.629Z,96422.81
2022-11-15T00:08:37.480Z,96435.66
2022-11-15T00:11:04.620Z,96426.38
2022-11-15T00:13:31.817Z,96422.63
2022-11-15T00:16:01.120Z,96425.53
2022-11-15T00:18:28.932Z,96422.47
2022-11-15T00:20:56.128Z,96425.03
2022-11-15T00:23:23.007Z,96425.84
2022-11-15T00:25:58.515Z,96419.16
2022-11-15T00:28:26.815Z,96417.22
2022-11-15T00:30:53.909Z,96417.69
2022-11-15T00:33:20.763Z,96418.34
2022-11-15T00:35:47.613Z,96411.03
2022-11-15T00:38:14.456Z,96411.03
2022-11-15T00:40:41.402Z,96410.53
2022-11-15T00:43:08.220Z,96417.84
2022-11-15T00:45:35.115Z,96412.63
2022-11-15T00:48:01.932Z,96413.13
2022-11-15T00:50:28.716Z,96408.88
2022-11-15T00:52:55.525Z,96403.66
2022-11-15T00:55:22.327Z,96404.16
2022-11-15T00:57:49.307Z,96401.38
2022-11-15T01:00:16.544Z,96402.03
2022-11-15T01:02:43.367Z,96403.66
2022-11-15T01:05:10.163Z,96393.25
2022-11-15T01:07:37.308Z,96395.69
2022-11-15T01:10:05.459Z,96388.38
2022-11-15T01:12:32.872Z,96383.47
2022-11-15T01:14:59.854Z,96378.25
2022-11-15T01:17:26.959Z,96371.75
2022-11-15T01:19:53.820Z,96378.91
2022-11-15T01:22:20.630Z,96381.22
2022-11-15T01:24:47.440Z,96369.47
2022-11-15T01:27:14.279Z,96370.78
2022-11-15T01:29:41.097Z,96362.97
2022-11-15T01:32:07.887Z,96363.47
2022-11-15T01:34:34.927Z,96365.59
2022-11-15T01:37:02.115Z,96360.25
2022-11-15T01:39:28.936Z,96352.59
2022-11-15T01:41:55.987Z,96351.59
2022-11-15T01:44:31.940Z,96354.72
2022-11-15T01:47:07.088Z,96353.72
2022-11-15T01:49:36.546Z,96347.69
2022-11-15T01:52:08.502Z,96344.47
2022-11-15T01:54:35.442Z,96346.06
2022-11-15T01:57:10.732Z,96350.31
2022-11-15T01:59:41.734Z,96329.97
2022-11-15T02:02:08.718Z,96327.19
2022-11-15T02:04:46.509Z,96328.16
2022-11-15T02:07:18.333Z,96335.31
2022-11-15T02:09:47.000Z,96330.78
2022-11-15T02:12:18.071Z,96326.84
2022-11-15T02:14:53.542Z,96314.81
2022-11-15T02:18:24.810Z,96319.03
2022-11-15T02:21:17.457Z,96311.22
2022-11-15T02:24:05.314Z,96308.31
2022-11-15T02:26:52.515Z,96309.59
2022-11-15T02:30:13.556Z,96314.97
2022-11-15T02:32:58.049Z,96307.97
2022-11-15T02:35:36.580Z,96308.47
2022-11-15T02:38:20.868Z,96301.78
2022-11-15T02:41:04.279Z,96304.69
2022-11-15T02:43:59.483Z,96293.97
2022-11-15T02:47:10.939Z,96295.53
2022-11-15T02:49:41.047Z,96289.50
2022-11-15T02:52:07.836Z,96290.50
2022-11-15T02:54:36.358Z,96289.50
2022-11-15T02:57:18.089Z,96289.19
2022-11-15T02:59:53.452Z,96291.59
2022-11-15T03:02:26.714Z,96289.47
2022-11-15T03:05:31.381Z,96285.91
2022-11-15T03:08:35.427Z,96294.69
2022-11-15T03:11:14.534Z,96284.13
2022-11-15T03:14:07.918Z,96284.09
2022-11-15T03:16:57.443Z,96281.28
2022-11-15T03:19:41.989Z,96278.50
2022-11-15T03:22:13.473Z,96280.72
2022-11-15T03:24:42.029Z,96279.56
2022-11-15T03:27:11.091Z,96271.28
2022-11-15T03:29:48.942Z,96259.88
2022-11-15T03:32:25.549Z,96262.16
2022-11-15T03:34:59.994Z,96264.75
2022-11-15T03:37:36.351Z,96266.81
2022-11-15T03:40:05.264Z,96267.03
2022-11-15T03:42:47.261Z,96269.78
2022-11-15T03:45:28.232Z,96262.16
2022-11-15T03:48:11.702Z,96269.94
2022-11-15T03:50:38.924Z,96262.78
2022-11-15T03:53:06.266Z,96263.53
2022-11-15T03:55:34.040Z,96264.66
2022-11-15T03:58:02.641Z,96258.50
2022-11-15T04:00:30.111Z,96262.38
2022-11-15T04:02:57.443Z,96252.63
2022-11-15T04:05:24.617Z,96258.81
2022-11-15T04:07:51.427Z,96253.00
2022-11-15T04:10:18.501Z,96254.94
2022-11-15T04:12:49.808Z,96255.91
2022-11-15T04:15:20.563Z,96248.44
2022-11-15T04:17:56.600Z,96249.59
2022-11-15T04:20:50.411Z,96240.97
2022-11-15T04:23:39.590Z,96239.34
2022-11-15T04:26:18.762Z,96241.28
2022-11-15T04:29:04.592Z,96243.22
2022-11-15T04:31:31.396Z,96235.88
2022-11-15T04:33:58.200Z,96226.25
2022-11-15T04:36:43.882Z,96226.44
2022-11-15T04:39:10.707Z,96210.50
2022-11-15T04:41:37.561Z,96218.50
2022-11-15T04:44:04.364Z,96210.44
2022-11-15T04:46:31.130Z,96197.44
2022-11-15T04:48:59.277Z,96206.56
2022-11-15T04:51:26.802Z,96209.50
2022-11-15T04:53:53.932Z,96204.97
2022-11-15T04:56:20.754Z,96205.19
2022-11-15T04:58:50.643Z,96205.06
2022-11-15T05:01:17.995Z,96211.91
2022-11-15T05:04:04.719Z,96213.91
2022-11-15T05:06:32.388Z,96203.50
2022-11-15T05:08:59.603Z,96217.16
2022-11-15T05:11:28.117Z,96220.06
2022-11-15T05:13:55.278Z,96215.53
2022-11-15T05:16:22.131Z,96214.88
2022-11-15T05:18:53.183Z,96215.19
2022-11-15T05:21:20.035Z,96223.09
2022-11-15T05:23:46.928Z,96211.22
2022-11-15T05:26:16.299Z,96206.59
2022-11-15T05:28:43.107Z,96204.28
2022-11-15T05:31:14.128Z,96204.59
2022-11-15T05:33:42.258Z,96198.41
2022-11-15T05:36:12.532Z,96200.03
2022-11-15T05:38:39.462Z,96204.41
2022-11-15T05:41:07.016Z,96195.94
2022-11-15T05:43:36.690Z,96190.28
2022-11-15T05:46:06.126Z,96187.03
2022-11-15T05:48:37.160Z,96186.91
2022-11-15T05:51:05.450Z,96196.97
2022-11-15T05:53:33.140Z,96192.56
2022-11-15T05:56:00.494Z,96180.88
2022-11-15T05:58:27.325Z,96178.78
2022-11-15T06:00:55.819Z,96175.06
2022-11-15T06:03:22.613Z,96175.69
2022-11-15T06:05:49.369Z,96174.88
2022-11-15T06:08:16.155Z,96177.63
2022-11-15T06:10:42.965Z,96168.03
2022-11-15T06:13:09.840Z,96170.50
2022-11-15T06:15:36.623Z,96173.09
2022-11-15T06:18:03.584Z,96170.03
2022-11-15T06:20:31.330Z,96174.09
2022-11-15T06:23:04.449Z,96178.28
2022-11-15T06:25:32.128Z,96189.31
2022-11-15T06:28:00.419Z,96186.69
2022-11-15T06:30:27.667Z,96190.91
2022-11-15T06:33:06.440Z,96182.09
2022-11-15T06:35:36.282Z,96179.03
2022-11-15T06:38:09.771Z,96171.06
2022-11-15T06:40:38.340Z,96177.91
2022-11-15T06:43:06.435Z,96164.34
2022-11-15T06:45:33.848Z,96179.66
2022-11-15T06:48:00.635Z,96174.16
2022-11-15T06:50:27.391Z,96170.31
2022-11-15T06:52:55.419Z,96168.69
2022-11-15T06:55:22.303Z,96164.13
2022-11-15T06:57:53.266Z,96167.94
2022-11-15T07:00:22.618Z,96166.06
2022-11-15T07:02:49.865Z,96168.69
2022-11-15T07:05:17.165Z,96178.63
2022-11-15T07:07:43.936Z,96167.00
2022-11-15T07:10:11.041Z,96165.81
2022-11-15T07:12:37.831Z,96174.84
2022-11-15T07:15:05.317Z,96168.56
2022-11-15T07:17:32.683Z,96169.69
2022-11-15T07:19:59.513Z,96171.44
2022-11-15T07:22:26.291Z,96171.88
2022-11-15T07:24:53.081Z,96167.72
2022-11-15T07:27:20.021Z,96165.78
2022-11-15T07:29:46.817Z,96161.53
2022-11-15T07:32:13.629Z,96164.72
2022-11-15T07:34:40.433Z,96158.19
2022-11-15T07:37:07.258Z,96160.25
2022-11-15T07:39:34.080Z,96156.72
2022-11-15T07:42:19.747Z,96161.88
2022-11-15T07:44:46.509Z,96164.16
2022-11-15T07:47:13.537Z,96171.66
2022-11-15T07:49:40.395Z,96173.25
2022-11-15T07:52:07.199Z,96166.72
2022-11-15T07:54:34.386Z,96174.63
2022-11-15T07:57:06.638Z,96162.66
2022-11-15T07:59:35.902Z,96168.13
2022-11-15T08:02:03.529Z,96163.25
2022-11-15T08:04:30.419Z,96170.53
2022-11-15T08:06:58.283Z,96177.00
2022-11-15T08:09:25.195Z,96177.31
2022-11-15T08:11:52.024Z,96177.53
2022-11-15T08:14:18.853Z,96176.22
2022-11-15T08:16:45.633Z,96161.28
2022-11-15T08:19:12.448Z,96148.50
2022-11-15T08:21:39.291Z,96144.84
2022-11-15T08:24:06.740Z,96144.31
2022-11-15T08:26:33.632Z,96145.44
2022-11-15T08:29:00.450Z,96142.00
2022-11-15T08:31:27.230Z,96136.75
2022-11-15T08:33:54.106Z,96142.88
2022-11-15T08:36:24.036Z,96132.56
2022-11-15T08:38:50.893Z,96131.34
2022-11-15T08:41:38.599Z,96129.44
2022-11-15T08:44:06.180Z,96114.84
2022-11-15T08:46:33.001Z,96101.91
2022-11-15T08:48:59.792Z,96103.53
2022-11-15T08:51:26.674Z,96089.16
2022-11-15T08:53:53.481Z,96095.06
2022-11-15T08:56:20.319Z,96095.47
2022-11-15T08:58:47.873Z,96089.06
2022-11-15T09:01:20.749Z,96093.72
2022-11-15T09:03:47.776Z,96091.09
2022-11-15T09:06:15.785Z,96091.06
2022-11-15T09:08:49.824Z,96088.81
2022-11-15T09:11:18.862Z,96081.16
2022-11-15T09:13:45.836Z,96085.00
2022-11-15T09:16:13.645Z,96088.88
2022-11-15T09:18:40.447Z,96079.19
2022-11-15T09:21:07.307Z,96081.22
2022-11-15T09:23:34.451Z,96080.53
2022-11-15T09:26:04.140Z,96080.84
2022-11-15T09:28:32.503Z,96087.66
2022-11-15T09:31:04.576Z,96079.63
2022-11-15T09:33:31.896Z,96083.38
2022-11-15T09:36:08.377Z,96080.69
2022-11-15T09:38:35.960Z,96080.47
2022-11-15T09:41:14.782Z,96077.97
2022-11-15T09:44:00.201Z,96069.59
2022-11-15T09:47:09.169Z,96073.38
2022-11-15T09:49:36.090Z,96061.13
2022-11-15T09:52:03.962Z,96044.28
2022-11-15T09:54:56.220Z,96046.66
2022-11-15T09:57:40.960Z,96040.69
2022-11-15T10:03:22.241Z,96036.88
2022-11-15T10:05:51.860Z,96029.88
2022-11-15T10:09:01.827Z,96027.31
2022-11-15T10:11:39.650Z,96020.44
2022-11-15T10:14:21.468Z,96016.75
2022-11-15T10:17:13.500Z,96007.91
2022-11-15T10:20:06.013Z,96004.19
2022-11-15T10:22:40.682Z,95994.88
2022-11-15T10:25:10.380Z,95991.63
2022-11-15T10:27:37.528Z,95983.28
2022-11-15T10:30:12.268Z,95988.47
2022-11-15T10:32:40.335Z,95974.59
2022-11-15T10:35:29.097Z,95978.09
2022-11-15T10:38:08.390Z,95966.47
2022-11-15T10:40:36.748Z,95963.63
2022-11-15T10:43:15.401Z,95963.88
2022-11-15T10:45:42.760Z,95960.06
2022-11-15T10:48:15.630Z,95958.03
2022-11-15T10:50:45.747Z,95956.44
2022-11-15T10:53:38.590Z,95951.63
2022-11-15T10:56:13.107Z,95945.41
2022-11-15T10:58:51.660Z,95938.28
2022-11-15T11:01:23.732Z,95940.94
2022-11-15T11:04:09.527Z,95931.78
2022-11-15T11:06:54.089Z,95930.91
2022-11-15T11:09:38.964Z,95925.84
2022-11-15T11:12:12.188Z,95928.34
2022-11-15T11:14:40.657Z,95921.25
2022-11-15T11:17:34.518Z,95918.50
2022-11-15T11:20:23.808Z,95920.19
2022-11-15T11:23:12.481Z,95915.22
2022-11-15T11:26:10.931Z,95904.78
2022-11-15T11:28:52.859Z,95904.84
2022-11-15T11:31:39.869Z,95912.34
2022-11-15T11:34:59.368Z,95912.56
2022-11-15T11:37:56.236Z,95897.25
2022-11-15T11:40:46.292Z,95893.28
2022-11-15T11:43:19.255Z,95896.31
2022-11-15T11:46:05.219Z,95899.84
2022-11-15T11:48:53.084Z,95886.81
2022-11-15T11:51:25.167Z,95890.44
2022-11-15T11:54:12.871Z,95888.00
2022-11-15T11:56:43.954Z,95874.66
2022-11-15T11:59:32.248Z,95871.63
2022-11-15T12:02:12.241Z,95870.88
2022-11-15T12:04:44.861Z,95878.06
2022-11-15T12:07:22.705Z,95865.19
2022-11-15T12:09:58.048Z,95868.00
2022-11-15T12:12:59.045Z,95854.00
2022-11-15T12:15:42.292Z,95851.28
2022-11-15T12:18:15.525Z,95832.91
2022-11-15T12:20:55.427Z,95836.25
2022-11-15T12:23:40.687Z,95832.56
2022-11-15T12:26:18.608Z,95828.94
2022-11-15T12:29:09.012Z,95824.31
2022-11-15T12:31:35.969Z,95815.56
2022-11-15T12:34:23.106Z,95810.91
2022-11-15T12:36:54.334Z,95816.34
2022-11-15T12:39:21.898Z,95801.25
2022-11-15T12:41:57.741Z,95811.16
2022-11-15T12:44:50.219Z,95803.50
2022-11-15T12:47:26.704Z,95799.94
2022-11-15T12:49:53.910Z,95802.69
2022-11-15T12:52:21.108Z,95802.84
2022-11-15T12:54:57.467Z,95800.53
2022-11-15T12:57:32.435Z,95803.28
2022-11-15T13:00:28.235Z,95805.84
2022-11-15T13:03:20.541Z,95800.50
2022-11-15T13:05:52.781Z,95800.63
2022-11-15T13:08:58.270Z,95794.44
2022-11-15T13:11:45.689Z,95789.72
2022-11-15T13:14:51.552Z,95793.34
2022-11-15T13:17:21.014Z,95788.34
2022-11-15T13:19:59.718Z,95795.38
2022-11-15T13:22:47.072Z,95794.22
2022-11-15T13:26:04.345Z,95801.00
2022-11-15T13:28:46.205Z,95792.03
2022-11-15T13:31:47.791Z,95785.19
2022-11-15T13:34:51.141Z,95786.53
2022-11-15T13:37:21.075Z,95777.72
2022-11-15T13:39:50.841Z,95780.31
2022-11-15T13:42:20.924Z,95769.06
2022-11-15T13:45:03.093Z,95770.59
2022-11-15T13:47:32.481Z,95771.50
2022-11-15T13:50:01.779Z,95763.91
2022-11-15T13:52:33.268Z,95766.94
2022-11-15T13:55:08.817Z,95773.78
2022-11-15T13:57:52.189Z,95769.50
2022-11-15T14:00:38.063Z,95764.13
2022-11-15T14:03:28.869Z,95767.44
2022-11-15T14:06:18.450Z,95761.94
2022-11-15T14:09:12.736Z,95766.16
2022-11-15T14:11:55.416Z,95758.56
2022-11-15T14:14:25.267Z,95765.28
2022-11-15T14:17:01.368Z,95771.31
2022-11-15T14:19:28.076Z,95765.41
2022-11-15T14:22:16.045Z,95768.47
2022-11-15T14:24:46.905Z,95771.22
2022-11-15T14:27:29.144Z,95758.72
2022-11-15T14:29:56.174Z,95754.00
2022-11-15T14:32:27.128Z,95748.25
2022-11-15T14:35:04.969Z,95747.59
2022-11-15T14:37:35.674Z,95748.44
2022-11-15T14:40:05.689Z,95735.34
2022-11-15T14:42:32.820Z,95748.66
2022-11-15T14:44:59.622Z,95750.53
2022-11-15T14:47:26.408Z,95747.06
2022-11-15T14:49:53.337Z,95740.00
2022-11-15T14:52:33.054Z,95733.88
2022-11-15T14:55:03.381Z,95734.19
2022-11-15T14:57:31.151Z,95748.66
2022-11-15T14:59:58.138Z,95745.97
2022-11-15T15:02:27.859Z,95746.47
2022-11-15T15:04:55.116Z,95743.47
2022-11-15T15:07:22.099Z,95738.53
2022-11-15T15:09:49.047Z,95742.91
2022-11-15T15:12:24.223Z,95745.47
2022-11-15T15:14:52.234Z,95732.06
2022-11-15T15:17:19.246Z,95736.34
2022-11-15T15:19:46.049Z,95731.53
2022-11-15T15:22:20.138Z,95728.59
2022-11-15T15:24:47.587Z,95721.97
2022-11-15T15:27:14.819Z,95716.69
2022-11-15T15:29:41.960Z,95720.03
2022-11-15T15:32:10.948Z,95716.75
2022-11-15T15:34:37.850Z,95725.34
2022-11-15T15:37:09.402Z,95726.03
2022-11-15T15:39:36.233Z,95730.13
2022-11-15T15:42:04.806Z,95723.53
2022-11-15T15:44:31.710Z,95724.09
2022-11-15T15:46:58.864Z,95727.44
2022-11-15T15:49:25.728Z,95720.28
2022-11-15T15:51:52.593Z,95722.22
2022-11-15T15:54:19.403Z,95723.34
2022-11-15T15:56:46.207Z,95720.53
2022-11-15T15:59:12.995Z,95705.59
2022-11-15T16:01:39.809Z,95717.41
2022-11-15T16:04:06.638Z,95714.22
2022-11-15T16:06:40.262Z,95718.75
2022-11-15T16:09:17.160Z,95728.09
2022-11-15T16:11:46.802Z,95714.81
2022-11-15T16:14:14.041Z,95715.06
2022-11-15T16:16:40.879Z,95706.84
2022-11-15T16:19:09.157Z,95700.84
2022-11-15T16:21:35.975Z,95699.56
2022-11-15T16:24:02.797Z,95695.59
2022-11-15T16:26:30.805Z,95702.88
2022-11-15T16:28:58.526Z,95686.44
2022-11-15T16:31:25.339Z,95699.44
2022-11-15T16:33:52.176Z,95699.44
2022-11-15T16:36:28.661Z,95689.78
2022-11-15T16:38:57.565Z,95691.81
2022-11-15T16:41:24.341Z,95687.38
2022-11-15T16:43:51.595Z,95689.41
2022-11-15T16:46:20.809Z,95682.50
2022-11-15T16:48:48.901Z,95690.78
2022-11-15T16:51:16.525Z,95680.53
2022-11-15T16:53:44.243Z,95686.59
2022-11-15T16:56:28.354Z,95676.94
2022-11-15T16:58:59.994Z,95677.75
2022-11-15T17:01:33.241Z,95682.22
2022-11-15T17:04:12.370Z,95681.41
2022-11-15T17:06:44.490Z,95678.56
2022-11-15T17:09:18.145Z,95679.78
2022-11-15T17:11:45.103Z,95674.97
2022-11-15T17:14:13.040Z,95674.16
2022-11-15T17:16:42.485Z,95672.38
2022-11-15T17:19:18.551Z,95678.00
2022-11-15T17:21:46.331Z,95664.88
2022-11-15T17:24:13.120Z,95674.53
2022-11-15T17:26:41.088Z,95664.06
2022-11-15T17:29:08.311Z,95661.63
2022-11-15T17:31:38.996Z,95657.59
2022-11-15T17:34:06.788Z,95658.22
2022-11-15T17:36:34.825Z,95652.34
2022-11-15T17:39:02.474Z,95651.94
2022-11-15T17:41:30.644Z,95640.63
2022-11-15T17:44:03.467Z,95639.25
2022-11-15T17:46:30.784Z,95637.44
2022-11-15T17:48:58.279Z,95635.00
2022-11-15T17:51:25.549Z,95637.41
2022-11-15T17:53:53.238Z,95634.53
2022-11-15T17:56:23.368Z,95632.94
2022-11-15T17:58:56.560Z,95628.09
2022-11-15T18:01:33.000Z,95627.69
2022-11-15T18:04:02.127Z,95618.78
2022-11-15T18:06:32.664Z,95622.41
2022-11-15T18:09:00.144Z,95624.41
2022-11-15T18:11:34.263Z,95632.88
2022-11-15T18:14:04.553Z,95625.97
2022-11-15T18:16:35.230Z,95614.84
2022-11-15T18:19:02.609Z,95617.03
2022-11-15T18:21:33.888Z,95614.69
2022-11-15T18:24:02.804Z,95611.88
2022-11-15T18:26:31.025Z,95610.88
2022-11-15T18:29:04.365Z,95613.53
2022-11-15T18:31:32.250Z,95619.63
2022-11-15T18:34:00.477Z,95616.81
2022-11-15T18:36:30.573Z,95612.41
2022-11-15T18:39:02.286Z,95600.28
2022-11-15T18:41:29.691Z,95597.88
2022-11-15T18:43:58.804Z,95591.78
2022-11-15T18:46:30.656Z,95592.53
2022-11-15T18:49:00.424Z,95602.22
2022-11-15T18:51:31.024Z,95591.28
2022-11-15T18:54:00.612Z,95590.88
2022-11-15T18:56:29.412Z,95592.38
2022-11-15T18:58:59.096Z,95590.78
2022-11-15T19:01:36.137Z,95591.84
2022-11-15T19:04:13.147Z,95597.09
2022-11-15T19:06:43.245Z,95587.41
2022-11-15T19:09:13.912Z,95580.75
2022-11-15T19:11:41.004Z,95581.34
2022-11-15T19:14:11.414Z,95578.31
2022-11-15T19:16:49.994Z,95574.09
2022-11-15T19:19:20.456Z,95582.38
2022-11-15T19:21:47.739Z,95574.72
2022-11-15T19:24:15.313Z,95570.47
2022-11-15T19:26:42.526Z,95574.13
2022-11-15T19:29:10.432Z,95575.94
2022-11-15T19:31:38.272Z,95567.88
2022-11-15T19:34:06.678Z,95566.66
2022-11-15T19:36:40.457Z,95557.38
2022-11-15T19:39:12.657Z,95550.94
2022-11-15T19:41:42.670Z,95544.50
2022-11-15T19:44:11.909Z,95543.69
2022-11-15T19:46:39.274Z,95545.88
2022-11-15T19:49:10.410Z,95541.25
2022-11-15T19:51:39.111Z,95548.91
2022-11-15T19:54:09.045Z,95548.13
2022-11-15T19:56:37.608Z,95548.09
2022-11-15T19:59:05.479Z,95541.25
2022-11-15T20:01:39.678Z,95546.50
2022-11-15T20:04:09.902Z,95545.50
2022-11-15T20:06:41.323Z,95548.50
2022-11-15T20:09:14.188Z,95540.66
2022-11-15T20:11:42.285Z,95544.50
2022-11-15T20:14:12.022Z,95553.56
2022-11-15T20:16:40.423Z,95550.16
2022-11-15T20:19:09.114Z,95550.34
2022-11-15T20:21:36.393Z,95546.91
2022-11-15T20:24:04.156Z,95538.06
2022-11-15T20:26:32.342Z,95546.16
2022-11-15T20:29:02.141Z,95535.88
2022-11-15T20:31:30.514Z,95533.81
2022-11-15T20:33:57.405Z,95530.00
2022-11-15T20:36:24.258Z,95522.34
2022-11-15T20:38:51.253Z,95523.34
2022-11-15T20:41:18.658Z,95519.53
2022-11-15T20:43:45.719Z,95516.47
2022-11-15T20:46:13.019Z,95518.31
2022-11-15T20:48:40.795Z,95511.63
2022-11-15T20:51:18.751Z,95514.63
2022-11-15T20:53:46.917Z,95510.81
2022-11-15T20:56:21.579Z,95510.81
2022-11-15T20:58:50.887Z,95507.38
2022-11-15T21:01:23.806Z,95502.50
2022-11-15T21:03:57.854Z,95502.50
2022-11-15T21:06:27.084Z,95498.06
2022-11-15T21:09:14.011Z,95490.47
2022-11-15T21:11:59.781Z,95483.16
2022-11-15T21:14:27.601Z,95485.59
2022-11-15T21:16:54.496Z,95486.41
2022-11-15T21:19:27.281Z,95492.44
2022-11-15T21:21:58.652Z,95496.50
2022-11-15T21:24:25.504Z,95485.38
2022-11-15T21:26:52.840Z,95492.44
2022-11-15T21:29:19.910Z,95479.97
2022-11-15T21:31:49.038Z,95479.72
2022-11-15T21:34:16.338Z,95465.78
2022-11-15T21:36:43.572Z,95461.75
2022-11-15T21:39:10.389Z,95466.16
2022-11-15T21:41:37.255Z,95455.25
2022-11-15T21:44:04.716Z,95454.41
2022-11-15T21:46:32.590Z,95452.81
2022-11-15T21:48:59.501Z,95444.72
2022-11-15T21:51:26.345Z,95447.56
2022-11-15T21:53:56.728Z,95438.97
2022-11-15T21:56:25.626Z,95438.50
2022-11-15T21:58:53.854Z,95432.25
2022-11-15T22:01:41.455Z,95412.94
2022-11-15T22:04:08.711Z,95401.28
2022-11-15T22:06:35.874Z,95401.28
2022-11-15T22:09:04.751Z,95398.41
2022-11-15T22:11:32.512Z,95391.03
2022-11-15T22:14:00.163Z,95378.28
2022-11-15T22:16:26.965Z,95373.47
2022-11-15T22:18:53.911Z,95377.53
2022-11-15T22:21:21.988Z,95374.75
2022-11-15T22:23:48.940Z,95375.16
2022-11-15T22:26:22.990Z,95371.97
2022-11-15T22:28:50.595Z,95379.50
2022-11-15T22:31:17.462Z,95376.03
2022-11-15T22:33:44.426Z,95366.56
2022-11-15T22:36:12.837Z,95365.97
2022-11-15T22:38:40.054Z,95366.41
2022-11-15T22:41:06.895Z,95359.94
2022-11-15T22:43:34.604Z,95358.00
2022-11-15T22:46:03.911Z,95364.09
2022-11-15T22:48:35.674Z,95363.50
2022-11-15T22:51:04.024Z,95369.72
2022-11-15T22:53:31.222Z,95375.56
2022-11-15T22:56:01.558Z,95376.22
2022-11-15T22:58:31.810Z,95373.59
2022-11-15T23:01:01.625Z,95380.03
2022-11-15T23:03:29.917Z,95392.34
2022-11-15T23:06:06.026Z,95391.75
2022-11-15T23:08:33.590Z,95387.53
2022-11-15T23:11:21.976Z,95381.09
2022-11-15T23:13:51.957Z,95389.16
2022-11-15T23:16:22.587Z,95374.47
2022-11-15T23:18:57.309Z,95364.19
2022-11-15T23:21:51.731Z,95342.06
2022-11-15T23:24:19.704Z,95329.78
2022-11-15T23:26:49.497Z,95344.06
2022-11-15T23:29:19.581Z,95331.16
2022-11-15T23:32:05.228Z,95339.59
2022-11-15T23:34:35.673Z,95334.53
2022-11-15T23:37:02.540Z,95333.34
2022-11-15T23:39:29.427Z,95332.75
2022-11-15T23:41:56.732Z,95335.34
2022-11-15T23:44:24.477Z,95323.47
2022-11-15T23:46:51.497Z,95327.13
2022-11-15T23:49:18.690Z,95320.28
2022-11-15T23:51:45.786Z,95317.06
2022-11-15T23:54:12.640Z,95317.06
2022-11-15T23:56:40.087Z,95310.84
2022-11-15T23:59:07.129Z,95306.22
